sensor_id;sensor_type;location;lat;lon;timestamp;P1;durP1;ratioP1;P2;durP2;ratioP2
13319;SDS011;59599;47.608;12.190;2023-02-15T05:02:15;9.53;;;4.07;;
13319;SDS011;59599;47.608;12.190;2023-02-15T05:04:40;3.63;;;2.93;;
13319;SDS011;59599;47.608;12.190;2023-02-15T05:07:06;6.03;;;3.83;;
13319;SDS011;59599;47.608;12.190;2023-02-15T05:09:32;5.13;;;3.40;;
13319;SDS011;59599;47.608;12.190;2023-02-15T05:11:58;7.20;;;3.60;;
13319;SDS011;59599;47.608;12.190;2023-02-15T05:14:24;6.15;;;3.80;;
13319;SDS011;59599;47.608;12.190;2023-02-15T05:16:50;4.13;;;3.27;;
13319;SDS011;59599;47.608;12.190;2023-02-15T05:19:15;5.00;;;3.07;;
13319;SDS011;59599;47.608;12.190;2023-02-15T05:21:41;5.70;;;3.50;;
13319;SDS011;59599;47.608;12.190;2023-02-15T05:24:07;4.80;;;3.10;;
13319;SDS011;59599;47.608;12.190;2023-02-15T05:26:51;6.47;;;3.63;;
13319;SDS011;59599;47.608;12.190;2023-02-15T05:29:36;4.70;;;3.40;;
13319;SDS011;59599;47.608;12.190;2023-02-15T05:32:01;4.87;;;3.60;;
13319;SDS011;59599;47.608;12.190;2023-02-15T05:34:29;6.07;;;3.83;;
13319;SDS011;59599;47.608;12.190;2023-02-15T05:36:54;7.37;;;4.20;;
13319;SDS011;59599;47.608;12.190;2023-02-15T05:39:20;4.87;;;3.80;;
13319;SDS011;59599;47.608;12.190;2023-02-15T05:41:46;5.93;;;4.20;;
13319;SDS011;59599;47.608;12.190;2023-02-15T05:44:11;5.77;;;3.50;;
13319;SDS011;59599;47.608;12.190;2023-02-15T05:46:37;3.83;;;3.27;;
13319;SDS011;59599;47.608;12.190;2023-02-15T05:49:03;6.80;;;3.63;;
13319;SDS011;59599;47.608;12.190;2023-02-15T05:51:28;4.47;;;3.47;;
13319;SDS011;59599;47.608;12.190;2023-02-15T05:53:54;4.47;;;3.33;;
13319;SDS011;59599;47.608;12.190;2023-02-15T05:56:20;4.83;;;3.60;;
13319;SDS011;59599;47.608;12.190;2023-02-15T05:58:46;4.73;;;3.63;;
13319;SDS011;59599;47.608;12.190;2023-02-15T06:01:13;5.77;;;3.83;;
13319;SDS011;59599;47.608;12.190;2023-02-15T06:03:40;5.67;;;4.07;;
13319;SDS011;59599;47.608;12.190;2023-02-15T06:06:06;5.10;;;3.80;;
13319;SDS011;59599;47.608;12.190;2023-02-15T06:08:33;9.27;;;5.27;;
13319;SDS011;59599;47.608;12.190;2023-02-15T06:10:59;8.30;;;4.80;;
13319;SDS011;59599;47.608;12.190;2023-02-15T06:13:25;9.23;;;5.07;;
13319;SDS011;59599;47.608;12.190;2023-02-15T06:15:51;7.23;;;4.73;;
13319;SDS011;59599;47.608;12.190;2023-02-15T06:18:16;9.20;;;5.40;;
13319;SDS011;59599;47.608;12.190;2023-02-15T06:20:44;7.80;;;5.47;;
13319;SDS011;59599;47.608;12.190;2023-02-15T06:23:10;10.33;;;6.10;;
13319;SDS011;59599;47.608;12.190;2023-02-15T06:25:36;11.20;;;7.23;;
13319;SDS011;59599;47.608;12.190;2023-02-15T06:28:02;10.10;;;5.60;;
13319;SDS011;59599;47.608;12.190;2023-02-15T06:30:28;12.20;;;6.03;;
13319;SDS011;59599;47.608;12.190;2023-02-15T06:32:54;11.43;;;6.40;;
13319;SDS011;59599;47.608;12.190;2023-02-15T06:35:20;8.83;;;5.37;;
13319;SDS011;59599;47.608;12.190;2023-02-15T06:37:46;9.80;;;6.40;;
13319;SDS011;59599;47.608;12.190;2023-02-15T06:40:12;17.20;;;10.13;;
13319;SDS011;59599;47.608;12.190;2023-02-15T06:42:38;19.50;;;11.53;;
13319;SDS011;59599;47.608;12.190;2023-02-15T06:45:04;22.73;;;11.70;;
13319;SDS011;59599;47.608;12.190;2023-02-15T06:47:30;14.80;;;9.30;;
13319;SDS011;59599;47.608;12.190;2023-02-15T06:49:55;16.47;;;9.33;;
13319;SDS011;59599;47.608;12.190;2023-02-15T06:52:22;16.37;;;9.10;;
13319;SDS011;59599;47.608;12.190;2023-02-15T06:54:48;12.10;;;7.63;;
13319;SDS011;59599;47.608;12.190;2023-02-15T06:57:13;11.40;;;7.43;;
13319;SDS011;59599;47.608;12.190;2023-02-15T06:59:39;13.10;;;7.17;;
13319;SDS011;59599;47.608;12.190;2023-02-15T07:02:05;13.87;;;7.20;;
13319;SDS011;59599;47.608;12.190;2023-02-15T07:04:31;12.53;;;8.27;;
13319;SDS011;59599;47.608;12.190;2023-02-15T07:06:57;11.10;;;7.80;;
13319;SDS011;59599;47.608;12.190;2023-02-15T07:09:23;10.40;;;6.70;;
13319;SDS011;59599;47.608;12.190;2023-02-15T07:11:48;9.60;;;6.30;;
13319;SDS011;59599;47.608;12.190;2023-02-15T07:14:33;11.83;;;6.87;;
13319;SDS011;59599;47.608;12.190;2023-02-15T07:16:58;15.30;;;8.40;;
13319;SDS011;59599;47.608;12.190;2023-02-15T07:19:24;16.20;;;9.40;;
13319;SDS011;59599;47.608;12.190;2023-02-15T07:21:50;16.47;;;10.33;;
13319;SDS011;59599;47.608;12.190;2023-02-15T07:24:16;14.67;;;9.73;;
13319;SDS011;59599;47.608;12.190;2023-02-15T07:26:42;17.73;;;9.47;;
13319;SDS011;59599;47.608;12.190;2023-02-15T07:29:08;18.17;;;9.07;;
13319;SDS011;59599;47.608;12.190;2023-02-15T07:31:34;9.70;;;7.00;;
13319;SDS011;59599;47.608;12.190;2023-02-15T07:34:00;9.43;;;6.53;;
13319;SDS011;59599;47.608;12.190;2023-02-15T07:36:26;11.50;;;7.13;;
13319;SDS011;59599;47.608;12.190;2023-02-15T07:38:52;10.47;;;6.57;;
13319;SDS011;59599;47.608;12.190;2023-02-15T07:41:18;11.57;;;7.30;;
13319;SDS011;59599;47.608;12.190;2023-02-15T07:43:44;12.67;;;7.43;;
13319;SDS011;59599;47.608;12.190;2023-02-15T07:46:11;10.60;;;7.23;;
13319;SDS011;59599;47.608;12.190;2023-02-15T07:48:38;10.43;;;7.30;;
13319;SDS011;59599;47.608;12.190;2023-02-15T07:51:05;11.80;;;7.10;;
13319;SDS011;59599;47.608;12.190;2023-02-15T07:53:31;16.63;;;8.77;;
13319;SDS011;59599;47.608;12.190;2023-02-15T07:55:58;10.37;;;7.13;;
13319;SDS011;59599;47.608;12.190;2023-02-15T07:58:24;11.93;;;7.00;;
13319;SDS011;59599;47.608;12.190;2023-02-15T08:01:10;13.73;;;7.60;;
13319;SDS011;59599;47.608;12.190;2023-02-15T08:03:36;10.87;;;7.67;;
13319;SDS011;59599;47.608;12.190;2023-02-15T08:06:02;12.90;;;8.00;;
13319;SDS011;59599;47.608;12.190;2023-02-15T08:08:27;16.77;;;8.10;;
13319;SDS011;59599;47.608;12.190;2023-02-15T08:11:00;13.57;;;8.50;;
13319;SDS011;59599;47.608;12.190;2023-02-15T08:13:46;11.90;;;8.73;;
13319;SDS011;59599;47.608;12.190;2023-02-15T08:19:05;11.27;;;6.50;;
13319;SDS011;59599;47.608;12.190;2023-02-15T08:21:31;12.00;;;7.43;;
13319;SDS011;59599;47.608;12.190;2023-02-15T08:23:58;14.40;;;6.23;;
13319;SDS011;59599;47.608;12.190;2023-02-15T08:26:24;12.47;;;6.20;;
13319;SDS011;59599;47.608;12.190;2023-02-15T08:28:51;14.27;;;6.33;;
13319;SDS011;59599;47.608;12.190;2023-02-15T08:31:17;10.67;;;6.03;;
13319;SDS011;59599;47.608;12.190;2023-02-15T08:33:43;8.90;;;6.30;;
13319;SDS011;59599;47.608;12.190;2023-02-15T08:36:10;8.60;;;6.10;;
13319;SDS011;59599;47.608;12.190;2023-02-15T08:38:36;14.43;;;6.77;;
13319;SDS011;59599;47.608;12.190;2023-02-15T08:41:13;8.70;;;5.90;;
13319;SDS011;59599;47.608;12.190;2023-02-15T08:43:44;9.40;;;6.60;;
13319;SDS011;59599;47.608;12.190;2023-02-15T08:46:10;10.30;;;7.10;;
13319;SDS011;59599;47.608;12.190;2023-02-15T08:48:36;11.10;;;7.27;;
13319;SDS011;59599;47.608;12.190;2023-02-15T08:51:06;14.27;;;7.47;;
13319;SDS011;59599;47.608;12.190;2023-02-15T08:53:40;14.83;;;6.67;;
13319;SDS011;59599;47.608;12.190;2023-02-15T08:56:06;7.83;;;5.70;;
13319;SDS011;59599;47.608;12.190;2023-02-15T08:58:34;11.40;;;7.10;;
13319;SDS011;59599;47.608;12.190;2023-02-15T09:01:00;14.80;;;5.87;;
13319;SDS011;59599;47.608;12.190;2023-02-15T09:03:29;8.27;;;4.63;;
13319;SDS011;59599;47.608;12.190;2023-02-15T09:05:58;7.57;;;5.03;;
13319;SDS011;59599;47.608;12.190;2023-02-15T09:08:25;7.03;;;4.93;;
13319;SDS011;59599;47.608;12.190;2023-02-15T09:10:51;6.37;;;4.93;;
13319;SDS011;59599;47.608;12.190;2023-02-15T09:13:17;6.30;;;4.87;;
13319;SDS011;59599;47.608;12.190;2023-02-15T09:15:42;7.30;;;5.40;;
13319;SDS011;59599;47.608;12.190;2023-02-15T09:18:08;7.03;;;4.87;;
13319;SDS011;59599;47.608;12.190;2023-02-15T09:20:37;7.27;;;5.27;;
13319;SDS011;59599;47.608;12.190;2023-02-15T09:23:03;10.07;;;6.53;;
13319;SDS011;59599;47.608;12.190;2023-02-15T09:25:29;6.83;;;4.50;;
13319;SDS011;59599;47.608;12.190;2023-02-15T09:27:55;5.00;;;3.97;;
13319;SDS011;59599;47.608;12.190;2023-02-15T09:30:21;11.13;;;6.10;;
13319;SDS011;59599;47.608;12.190;2023-02-15T09:32:47;10.70;;;6.43;;
13319;SDS011;59599;47.608;12.190;2023-02-15T09:35:13;6.90;;;4.80;;
13319;SDS011;59599;47.608;12.190;2023-02-15T09:37:38;5.80;;;4.00;;
13319;SDS011;59599;47.608;12.190;2023-02-15T09:40:04;9.37;;;4.87;;
13319;SDS011;59599;47.608;12.190;2023-02-15T09:42:46;6.07;;;4.13;;
13319;SDS011;59599;47.608;12.190;2023-02-15T09:48:38;5.57;;;3.93;;
13319;SDS011;59599;47.608;12.190;2023-02-15T09:56:45;6.23;;;4.33;;
13319;SDS011;59599;47.608;12.190;2023-02-15T10:02:08;9.03;;;3.90;;
13319;SDS011;59599;47.608;12.190;2023-02-15T10:25:51;3.57;;;2.47;;
13319;SDS011;59599;47.608;12.190;2023-02-15T10:28:31;4.00;;;2.60;;
13319;SDS011;59599;47.608;12.190;2023-02-15T10:33:46;6.37;;;2.70;;
13319;SDS011;59599;47.608;12.190;2023-02-15T10:36:24;3.90;;;3.07;;
13319;SDS011;59599;47.608;12.190;2023-02-15T10:41:46;5.83;;;3.50;;
13319;SDS011;59599;47.608;12.190;2023-02-15T10:44:24;5.73;;;3.40;;
13319;SDS011;59599;47.608;12.190;2023-02-15T10:52:54;9.67;;;3.67;;
13319;SDS011;59599;47.608;12.190;2023-02-15T11:01:10;7.17;;;3.70;;
13319;SDS011;59599;47.608;12.190;2023-02-15T11:06:46;5.07;;;3.00;;
13319;SDS011;59599;47.608;12.190;2023-02-15T11:09:17;9.33;;;3.70;;
13319;SDS011;59599;47.608;12.190;2023-02-15T11:11:47;7.83;;;3.20;;
13319;SDS011;59599;47.608;12.190;2023-02-15T11:14:17;4.87;;;3.17;;
13319;SDS011;59599;47.608;12.190;2023-02-15T11:16:46;5.60;;;2.30;;
13319;SDS011;59599;47.608;12.190;2023-02-15T11:19:19;7.07;;;2.70;;
13319;SDS011;59599;47.608;12.190;2023-02-15T11:21:59;2.90;;;2.27;;
13319;SDS011;59599;47.608;12.190;2023-02-15T11:24:29;3.40;;;2.33;;
13319;SDS011;59599;47.608;12.190;2023-02-15T11:27:00;3.43;;;2.20;;
13319;SDS011;59599;47.608;12.190;2023-02-15T11:29:34;5.37;;;2.00;;
13319;SDS011;59599;47.608;12.190;2023-02-15T11:32:11;2.37;;;2.00;;
13319;SDS011;59599;47.608;12.190;2023-02-15T11:34:53;2.53;;;1.93;;
13319;SDS011;59599;47.608;12.190;2023-02-15T11:37:23;3.00;;;2.10;;
13319;SDS011;59599;47.608;12.190;2023-02-15T11:39:54;4.20;;;1.90;;
13319;SDS011;59599;47.608;12.190;2023-02-15T11:42:20;2.57;;;1.87;;
13319;SDS011;59599;47.608;12.190;2023-02-15T11:47:19;2.60;;;2.20;;
13319;SDS011;59599;47.608;12.190;2023-02-15T11:49:45;3.40;;;1.87;;
13319;SDS011;59599;47.608;12.190;2023-02-15T11:52:12;3.03;;;2.27;;
13319;SDS011;59599;47.608;12.190;2023-02-15T11:54:40;3.50;;;2.40;;
13319;SDS011;59599;47.608;12.190;2023-02-15T11:57:14;4.53;;;2.17;;
13319;SDS011;59599;47.608;12.190;2023-02-15T11:59:41;2.93;;;2.40;;
13319;SDS011;59599;47.608;12.190;2023-02-15T12:02:14;4.73;;;2.23;;
13319;SDS011;59599;47.608;12.190;2023-02-15T12:04:56;5.47;;;2.27;;
13319;SDS011;59599;47.608;12.190;2023-02-15T12:07:27;3.13;;;2.30;;
13319;SDS011;59599;47.608;12.190;2023-02-15T12:12:47;6.63;;;2.43;;
13319;SDS011;59599;47.608;12.190;2023-02-15T12:15:13;5.80;;;2.27;;
13319;SDS011;59599;47.608;12.190;2023-02-15T12:17:39;3.47;;;2.20;;
13319;SDS011;59599;47.608;12.190;2023-02-15T12:22:37;3.17;;;2.30;;
13319;SDS011;59599;47.608;12.190;2023-02-15T12:25:11;6.30;;;2.07;;
13319;SDS011;59599;47.608;12.190;2023-02-15T12:27:54;6.53;;;2.03;;
13319;SDS011;59599;47.608;12.190;2023-02-15T12:32:48;3.70;;;2.10;;
13319;SDS011;59599;47.608;12.190;2023-02-15T12:35:29;4.97;;;2.20;;
13319;SDS011;59599;47.608;12.190;2023-02-15T12:38:05;2.67;;;2.20;;
13319;SDS011;59599;47.608;12.190;2023-02-15T12:40:34;2.47;;;2.00;;
13319;SDS011;59599;47.608;12.190;2023-02-15T12:43:00;3.13;;;2.40;;
13319;SDS011;59599;47.608;12.190;2023-02-15T12:45:34;6.30;;;2.33;;
13319;SDS011;59599;47.608;12.190;2023-02-15T12:50:57;2.60;;;2.17;;
13319;SDS011;59599;47.608;12.190;2023-02-15T12:53:33;3.63;;;2.30;;
13319;SDS011;59599;47.608;12.190;2023-02-15T12:56:01;3.83;;;2.70;;
13319;SDS011;59599;47.608;12.190;2023-02-15T12:58:32;3.40;;;2.07;;
13319;SDS011;59599;47.608;12.190;2023-02-15T13:04:00;2.87;;;1.93;;
13319;SDS011;59599;47.608;12.190;2023-02-15T13:06:26;5.17;;;2.40;;
13319;SDS011;59599;47.608;12.190;2023-02-15T13:08:54;4.50;;;2.13;;
13319;SDS011;59599;47.608;12.190;2023-02-15T13:11:26;3.83;;;2.00;;
13319;SDS011;59599;47.608;12.190;2023-02-15T13:13:59;4.47;;;2.23;;
13319;SDS011;59599;47.608;12.190;2023-02-15T13:19:07;6.17;;;2.33;;
13319;SDS011;59599;47.608;12.190;2023-02-15T13:21:44;7.67;;;4.43;;
13319;SDS011;59599;47.608;12.190;2023-02-15T13:26:46;7.97;;;3.80;;
13319;SDS011;59599;47.608;12.190;2023-02-15T13:29:23;7.10;;;4.27;;
13319;SDS011;59599;47.608;12.190;2023-02-15T13:31:52;7.30;;;4.05;;
13319;SDS011;59599;47.608;12.190;2023-02-15T13:34:22;9.30;;;5.13;;
13319;SDS011;59599;47.608;12.190;2023-02-15T13:36:57;8.30;;;5.45;;
13319;SDS011;59599;47.608;12.190;2023-02-15T13:39:48;7.67;;;5.73;;
13319;SDS011;59599;47.608;12.190;2023-02-15T13:42:27;9.55;;;5.90;;
13319;SDS011;59599;47.608;12.190;2023-02-15T13:52:32;9.10;;;5.90;;
13319;SDS011;59599;47.608;12.190;2023-02-15T13:55:26;8.88;;;6.18;;
13319;SDS011;59599;47.608;12.190;2023-02-15T13:58:03;11.07;;;6.30;;
13319;SDS011;59599;47.608;12.190;2023-02-15T14:03:24;9.27;;;6.07;;
13319;SDS011;59599;47.608;12.190;2023-02-15T14:06:05;9.57;;;6.27;;
13319;SDS011;59599;47.608;12.190;2023-02-15T14:08:54;8.20;;;6.70;;
13319;SDS011;59599;47.608;12.190;2023-02-15T14:11:36;7.57;;;6.27;;
13319;SDS011;59599;47.608;12.190;2023-02-15T14:17:34;7.45;;;5.82;;
13319;SDS011;59599;47.608;12.190;2023-02-15T14:22:57;8.88;;;5.63;;
13319;SDS011;59599;47.608;12.190;2023-02-15T14:26:40;7.03;;;5.40;;
13319;SDS011;59599;47.608;12.190;2023-02-15T14:31:39;8.25;;;5.70;;
13319;SDS011;59599;47.608;12.190;2023-02-15T14:34:17;9.25;;;5.55;;
13319;SDS011;59599;47.608;12.190;2023-02-15T14:36:52;5.40;;;4.90;;
13319;SDS011;59599;47.608;12.190;2023-02-15T14:39:25;7.93;;;5.30;;
13319;SDS011;59599;47.608;12.190;2023-02-15T14:42:42;6.85;;;4.93;;
13319;SDS011;59599;47.608;12.190;2023-02-15T14:45:39;9.15;;;5.30;;
13319;SDS011;59599;47.608;12.190;2023-02-15T14:48:19;8.20;;;5.85;;
13319;SDS011;59599;47.608;12.190;2023-02-15T14:50:49;7.30;;;5.30;;
13319;SDS011;59599;47.608;12.190;2023-02-15T14:58:41;8.88;;;6.35;;
13319;SDS011;59599;47.608;12.190;2023-02-15T15:03:55;6.32;;;5.53;;
13319;SDS011;59599;47.608;12.190;2023-02-15T15:06:26;8.90;;;6.20;;
13319;SDS011;59599;47.608;12.190;2023-02-15T15:08:55;8.32;;;6.43;;
13319;SDS011;59599;47.608;12.190;2023-02-15T15:11:37;10.77;;;6.93;;
13319;SDS011;59599;47.608;12.190;2023-02-15T15:14:09;10.68;;;7.13;;
13319;SDS011;59599;47.608;12.190;2023-02-15T15:16:55;8.32;;;6.78;;
13319;SDS011;59599;47.608;12.190;2023-02-15T15:22:16;10.50;;;6.65;;
13319;SDS011;59599;47.608;12.190;2023-02-15T15:32:38;9.20;;;6.80;;
13319;SDS011;59599;47.608;12.190;2023-02-15T15:38:17;10.65;;;6.13;;
13319;SDS011;59599;47.608;12.190;2023-02-15T15:41:17;10.50;;;6.85;;
13319;SDS011;59599;47.608;12.190;2023-02-15T15:49:49;10.30;;;8.73;;
13319;SDS011;59599;47.608;12.190;2023-02-15T15:52:20;12.23;;;8.00;;
13319;SDS011;59599;47.608;12.190;2023-02-15T15:54:46;10.73;;;7.18;;
13319;SDS011;59599;47.608;12.190;2023-02-15T15:59:53;12.75;;;7.43;;
13319;SDS011;59599;47.608;12.190;2023-02-15T16:02:19;7.77;;;6.60;;
13319;SDS011;59599;47.608;12.190;2023-02-15T16:04:45;7.93;;;7.13;;
13319;SDS011;59599;47.608;12.190;2023-02-15T16:09:40;10.00;;;6.53;;
13319;SDS011;59599;47.608;12.190;2023-02-15T16:12:13;8.63;;;7.07;;
13319;SDS011;59599;47.608;12.190;2023-02-15T16:14:40;11.47;;;7.60;;
13319;SDS011;59599;47.608;12.190;2023-02-15T16:17:14;12.17;;;7.17;;
13319;SDS011;59599;47.608;12.190;2023-02-15T16:19:45;7.50;;;6.67;;
13319;SDS011;59599;47.608;12.190;2023-02-15T16:22:44;8.37;;;7.07;;
13319;SDS011;59599;47.608;12.190;2023-02-15T16:25:16;11.17;;;7.67;;
13319;SDS011;59599;47.608;12.190;2023-02-15T16:27:46;12.70;;;7.80;;
13319;SDS011;59599;47.608;12.190;2023-02-15T16:30:20;9.30;;;8.20;;
13319;SDS011;59599;47.608;12.190;2023-02-15T16:32:55;12.00;;;9.83;;
13319;SDS011;59599;47.608;12.190;2023-02-15T16:35:28;13.63;;;9.53;;
13319;SDS011;59599;47.608;12.190;2023-02-15T16:37:54;14.97;;;8.87;;
13319;SDS011;59599;47.608;12.190;2023-02-15T16:42:50;11.20;;;8.77;;
13319;SDS011;59599;47.608;12.190;2023-02-15T16:45:21;12.60;;;9.17;;
13319;SDS011;59599;47.608;12.190;2023-02-15T16:47:49;21.13;;;11.67;;
13319;SDS011;59599;47.608;12.190;2023-02-15T16:52:56;16.30;;;10.93;;
13319;SDS011;59599;47.608;12.190;2023-02-15T16:55:25;15.47;;;11.10;;
13319;SDS011;59599;47.608;12.190;2023-02-15T16:57:54;16.57;;;11.03;;
13319;SDS011;59599;47.608;12.190;2023-02-15T17:00:22;22.23;;;10.53;;
13319;SDS011;59599;47.608;12.190;2023-02-15T17:02:53;18.07;;;10.90;;
13319;SDS011;59599;47.608;12.190;2023-02-15T17:05:20;19.03;;;12.70;;
13319;SDS011;59599;47.608;12.190;2023-02-15T17:10:25;18.83;;;13.90;;
13319;SDS011;59599;47.608;12.190;2023-02-15T17:13:01;28.23;;;18.23;;
13319;SDS011;59599;47.608;12.190;2023-02-15T17:15:32;24.92;;;16.50;;
13319;SDS011;59599;47.608;12.190;2023-02-15T17:18:00;28.57;;;16.37;;
13319;SDS011;59599;47.608;12.190;2023-02-15T17:20:27;25.80;;;15.83;;
13319;SDS011;59599;47.608;12.190;2023-02-15T17:22:54;24.87;;;15.10;;
13319;SDS011;59599;47.608;12.190;2023-02-15T17:25:20;22.87;;;14.60;;
13319;SDS011;59599;47.608;12.190;2023-02-15T17:27:53;22.63;;;15.90;;
13319;SDS011;59599;47.608;12.190;2023-02-15T17:30:26;30.53;;;15.13;;
13319;SDS011;59599;47.608;12.190;2023-02-15T17:32:59;21.33;;;14.73;;
13319;SDS011;59599;47.608;12.190;2023-02-15T17:35:27;26.27;;;15.27;;
13319;SDS011;59599;47.608;12.190;2023-02-15T17:38:00;22.90;;;13.80;;
13319;SDS011;59599;47.608;12.190;2023-02-15T17:40:27;19.37;;;12.83;;
13319;SDS011;59599;47.608;12.190;2023-02-15T17:42:54;21.87;;;12.87;;
13319;SDS011;59599;47.608;12.190;2023-02-15T17:45:20;25.67;;;14.03;;
13319;SDS011;59599;47.608;12.190;2023-02-15T17:47:49;23.23;;;14.07;;
13319;SDS011;59599;47.608;12.190;2023-02-15T17:50:16;24.57;;;13.73;;
13319;SDS011;59599;47.608;12.190;2023-02-15T17:52:47;23.67;;;14.77;;
13319;SDS011;59599;47.608;12.190;2023-02-15T17:55:14;26.00;;;17.10;;
13319;SDS011;59599;47.608;12.190;2023-02-15T17:57:59;23.73;;;15.93;;
13319;SDS011;59599;47.608;12.190;2023-02-15T18:00:25;24.30;;;14.37;;
13319;SDS011;59599;47.608;12.190;2023-02-15T18:03:10;20.37;;;15.53;;
13319;SDS011;59599;47.608;12.190;2023-02-15T18:05:55;24.00;;;15.70;;
13319;SDS011;59599;47.608;12.190;2023-02-15T18:08:40;26.60;;;15.60;;
13319;SDS011;59599;47.608;12.190;2023-02-15T18:11:24;23.73;;;15.97;;
13319;SDS011;59599;47.608;12.190;2023-02-15T18:14:02;23.60;;;16.27;;
13319;SDS011;59599;47.608;12.190;2023-02-15T18:16:35;27.67;;;16.47;;
13319;SDS011;59599;47.608;12.190;2023-02-15T18:19:05;29.40;;;17.23;;
13319;SDS011;59599;47.608;12.190;2023-02-15T18:21:37;27.53;;;17.93;;
13319;SDS011;59599;47.608;12.190;2023-02-15T18:24:03;29.43;;;16.47;;
13319;SDS011;59599;47.608;12.190;2023-02-15T18:26:29;27.77;;;16.63;;
13319;SDS011;59599;47.608;12.190;2023-02-15T18:28:55;27.67;;;17.00;;
13319;SDS011;59599;47.608;12.190;2023-02-15T18:31:21;27.50;;;17.20;;
13319;SDS011;59599;47.608;12.190;2023-02-15T18:33:49;31.03;;;17.87;;
13319;SDS011;59599;47.608;12.190;2023-02-15T18:36:21;34.90;;;18.37;;
13319;SDS011;59599;47.608;12.190;2023-02-15T18:38:52;24.57;;;16.93;;
13319;SDS011;59599;47.608;12.190;2023-02-15T18:41:19;25.83;;;17.30;;
13319;SDS011;59599;47.608;12.190;2023-02-15T18:43:45;25.80;;;15.63;;
13319;SDS011;59599;47.608;12.190;2023-02-15T18:46:13;24.80;;;15.50;;
13319;SDS011;59599;47.608;12.190;2023-02-15T18:48:39;24.27;;;15.47;;
13319;SDS011;59599;47.608;12.190;2023-02-15T18:51:07;20.93;;;14.97;;
13319;SDS011;59599;47.608;12.190;2023-02-15T18:53:41;22.83;;;14.20;;
13319;SDS011;59599;47.608;12.190;2023-02-15T18:56:11;26.23;;;18.63;;
13319;SDS011;59599;47.608;12.190;2023-02-15T18:58:39;23.93;;;17.07;;
13319;SDS011;59599;47.608;12.190;2023-02-15T19:01:10;24.63;;;15.67;;
13319;SDS011;59599;47.608;12.190;2023-02-15T19:03:40;11.50;;;7.83;;
13319;SDS011;59599;47.608;12.190;2023-02-15T19:06:08;13.57;;;8.97;;
13319;SDS011;59599;47.608;12.190;2023-02-15T19:08:35;12.87;;;9.17;;
13319;SDS011;59599;47.608;12.190;2023-02-15T19:11:01;20.33;;;12.17;;
13319;SDS011;59599;47.608;12.190;2023-02-15T19:13:27;26.27;;;12.50;;
13319;SDS011;59599;47.608;12.190;2023-02-15T19:15:53;19.73;;;11.97;;
13319;SDS011;59599;47.608;12.190;2023-02-15T19:18:19;22.43;;;13.33;;
13319;SDS011;59599;47.608;12.190;2023-02-15T19:20:45;9.87;;;6.17;;
13319;SDS011;59599;47.608;12.190;2023-02-15T19:23:16;13.53;;;6.80;;
13319;SDS011;59599;47.608;12.190;2023-02-15T19:25:43;12.37;;;7.57;;
13319;SDS011;59599;47.608;12.190;2023-02-15T19:28:17;16.27;;;8.27;;
13319;SDS011;59599;47.608;12.190;2023-02-15T19:30:43;11.97;;;8.00;;
13319;SDS011;59599;47.608;12.190;2023-02-15T19:33:14;12.77;;;8.23;;
13319;SDS011;59599;47.608;12.190;2023-02-15T19:35:42;16.43;;;9.93;;
13319;SDS011;59599;47.608;12.190;2023-02-15T19:38:10;11.67;;;7.30;;
13319;SDS011;59599;47.608;12.190;2023-02-15T19:40:37;13.30;;;6.30;;
13319;SDS011;59599;47.608;12.190;2023-02-15T19:43:05;16.30;;;7.67;;
13319;SDS011;59599;47.608;12.190;2023-02-15T19:45:35;12.80;;;8.37;;
13319;SDS011;59599;47.608;12.190;2023-02-15T19:48:00;9.63;;;6.43;;
13319;SDS011;59599;47.608;12.190;2023-02-15T19:50:27;10.53;;;5.77;;
13319;SDS011;59599;47.608;12.190;2023-02-15T19:52:54;11.33;;;5.50;;
13319;SDS011;59599;47.608;12.190;2023-02-15T19:55:27;12.57;;;4.60;;
13319;SDS011;59599;47.608;12.190;2023-02-15T19:57:54;10.67;;;6.17;;
13319;SDS011;59599;47.608;12.190;2023-02-15T20:00:21;14.23;;;7.87;;
13319;SDS011;59599;47.608;12.190;2023-02-15T20:02:49;13.80;;;8.30;;
13319;SDS011;59599;47.608;12.190;2023-02-15T20:05:15;16.63;;;10.77;;
13319;SDS011;59599;47.608;12.190;2023-02-15T20:07:41;16.90;;;10.83;;
13319;SDS011;59599;47.608;12.190;2023-02-15T20:10:16;17.10;;;9.87;;
13319;SDS011;59599;47.608;12.190;2023-02-15T20:12:42;15.70;;;10.33;;
13319;SDS011;59599;47.608;12.190;2023-02-15T20:15:15;17.77;;;10.03;;
13319;SDS011;59599;47.608;12.190;2023-02-15T20:17:43;19.67;;;11.53;;
13319;SDS011;59599;47.608;12.190;2023-02-15T20:20:09;16.33;;;9.20;;
13319;SDS011;59599;47.608;12.190;2023-02-15T20:22:35;16.60;;;9.00;;
13319;SDS011;59599;47.608;12.190;2023-02-15T20:25:01;14.13;;;8.17;;
13319;SDS011;59599;47.608;12.190;2023-02-15T20:27:27;16.70;;;8.07;;
13319;SDS011;59599;47.608;12.190;2023-02-15T20:29:53;13.00;;;7.40;;
13319;SDS011;59599;47.608;12.190;2023-02-15T20:32:20;12.77;;;9.33;;
13319;SDS011;59599;47.608;12.190;2023-02-15T20:34:46;17.77;;;9.37;;
13319;SDS011;59599;47.608;12.190;2023-02-15T20:37:18;17.20;;;10.23;;
13319;SDS011;59599;47.608;12.190;2023-02-15T20:39:45;13.13;;;8.23;;
13319;SDS011;59599;47.608;12.190;2023-02-15T20:42:11;19.67;;;9.43;;
13319;SDS011;59599;47.608;12.190;2023-02-15T20:44:38;19.23;;;9.90;;
13319;SDS011;59599;47.608;12.190;2023-02-15T20:47:05;17.67;;;9.70;;
13319;SDS011;59599;47.608;12.190;2023-02-15T20:49:30;19.90;;;10.30;;
13319;SDS011;59599;47.608;12.190;2023-02-15T20:51:56;22.57;;;11.03;;
13319;SDS011;59599;47.608;12.190;2023-02-15T20:54:23;21.37;;;10.50;;
13319;SDS011;59599;47.608;12.190;2023-02-15T20:56:49;20.67;;;9.23;;
13319;SDS011;59599;47.608;12.190;2023-02-15T20:59:18;25.90;;;13.13;;
13319;SDS011;59599;47.608;12.190;2023-02-15T21:01:47;21.13;;;10.57;;
13319;SDS011;59599;47.608;12.190;2023-02-15T21:04:27;13.00;;;8.10;;
13319;SDS011;59599;47.608;12.190;2023-02-15T21:06:57;15.67;;;7.80;;
13319;SDS011;59599;47.608;12.190;2023-02-15T21:09:23;12.97;;;8.40;;
13319;SDS011;59599;47.608;12.190;2023-02-15T21:11:49;16.40;;;9.10;;
13319;SDS011;59599;47.608;12.190;2023-02-15T21:14:20;21.97;;;14.93;;
13319;SDS011;59599;47.608;12.190;2023-02-15T21:16:46;20.60;;;13.47;;
13319;SDS011;59599;47.608;12.190;2023-02-15T21:19:17;22.67;;;13.93;;
13319;SDS011;59599;47.608;12.190;2023-02-15T21:21:43;20.27;;;11.90;;
13319;SDS011;59599;47.608;12.190;2023-02-15T21:24:18;22.50;;;11.10;;
13319;SDS011;59599;47.608;12.190;2023-02-15T21:26:45;23.43;;;10.13;;
13319;SDS011;59599;47.608;12.190;2023-02-15T21:29:14;17.10;;;9.33;;
13319;SDS011;59599;47.608;12.190;2023-02-15T21:31:40;15.80;;;9.03;;
13319;SDS011;59599;47.608;12.190;2023-02-15T21:34:06;15.93;;;8.00;;
13319;SDS011;59599;47.608;12.190;2023-02-15T21:36:32;14.80;;;8.70;;
13319;SDS011;59599;47.608;12.190;2023-02-15T21:38:58;16.70;;;8.70;;
13319;SDS011;59599;47.608;12.190;2023-02-15T21:41:24;12.30;;;7.87;;
13319;SDS011;59599;47.608;12.190;2023-02-15T21:44:13;15.67;;;9.37;;
13319;SDS011;59599;47.608;12.190;2023-02-15T21:46:59;12.67;;;8.60;;
13319;SDS011;59599;47.608;12.190;2023-02-15T21:49:43;17.23;;;8.40;;
13319;SDS011;59599;47.608;12.190;2023-02-15T21:52:13;15.27;;;8.83;;
13319;SDS011;59599;47.608;12.190;2023-02-15T21:54:41;11.60;;;8.20;;
13319;SDS011;59599;47.608;12.190;2023-02-15T21:57:14;14.13;;;8.67;;
13319;SDS011;59599;47.608;12.190;2023-02-15T21:59:41;16.17;;;8.97;;